sensor_id;sensor_type;location;lat;lon;timestamp;temperature;humidity
40287;DHT22;25998;46.604;13.610;2024-03-06T00:03:09;8.00;99.90
40287;DHT22;25998;46.604;13.610;2024-03-06T00:06:20;7.90;99.90
40287;DHT22;25998;46.604;13.610;2024-03-06T00:09:31;7.80;99.90
40287;DHT22;25998;46.604;13.610;2024-03-06T00:12:42;7.80;99.90
40287;DHT22;25998;46.604;13.610;2024-03-06T00:15:53;7.80;99.90
40287;DHT22;25998;46.604;13.610;2024-03-06T00:19:04;7.90;99.90
40287;DHT22;25998;46.604;13.610;2024-03-06T00:22:15;7.90;99.90
40287;DHT22;25998;46.604;13.610;2024-03-06T00:25:27;7.90;99.90
40287;DHT22;25998;46.604;13.610;2024-03-06T00:28:38;8.00;99.90
40287;DHT22;25998;46.604;13.610;2024-03-06T00:31:49;8.10;99.90
40287;DHT22;25998;46.604;13.610;2024-03-06T00:35:01;8.10;99.90
40287;DHT22;25998;46.604;13.610;2024-03-06T00:38:12;8.10;99.90
40287;DHT22;25998;46.604;13.610;2024-03-06T00:41:23;8.10;99.90
40287;DHT22;25998;46.604;13.610;2024-03-06T00:44:34;7.90;99.90
40287;DHT22;25998;46.604;13.610;2024-03-06T00:47:45;7.80;99.90
40287;DHT22;25998;46.604;13.610;2024-03-06T00:50:56;7.80;99.90
40287;DHT22;25998;46.604;13.610;2024-03-06T00:54:07;7.80;99.90
40287;DHT22;25998;46.604;13.610;2024-03-06T00:57:18;7.90;99.90
40287;DHT22;25998;46.604;13.610;2024-03-06T01:00:29;7.90;99.90
40287;DHT22;25998;46.604;13.610;2024-03-06T01:03:40;8.00;99.90
40287;DHT22;25998;46.604;13.610;2024-03-06T01:06:51;8.00;99.90
40287;DHT22;25998;46.604;13.610;2024-03-06T01:10:02;7.90;99.90
40287;DHT22;25998;46.604;13.610;2024-03-06T01:13:13;7.80;99.90
40287;DHT22;25998;46.604;13.610;2024-03-06T01:16:24;8.00;99.90
40287;DHT22;25998;46.604;13.610;2024-03-06T01:19:35;8.00;99.90
40287;DHT22;25998;46.604;13.610;2024-03-06T01:22:46;7.90;99.90
40287;DHT22;25998;46.604;13.610;2024-03-06T01:25:57;7.90;99.90
40287;DHT22;25998;46.604;13.610;2024-03-06T01:29:08;7.90;99.90
40287;DHT22;25998;46.604;13.610;2024-03-06T01:32:19;7.90;99.90
40287;DHT22;25998;46.604;13.610;2024-03-06T01:35:30;7.90;99.90
40287;DHT22;25998;46.604;13.610;2024-03-06T01:38:40;7.80;99.90
40287;DHT22;25998;46.604;13.610;2024-03-06T01:41:52;7.80;99.90
40287;DHT22;25998;46.604;13.610;2024-03-06T01:45:05;7.90;99.90
40287;DHT22;25998;46.604;13.610;2024-03-06T01:48:23;7.90;99.90
40287;DHT22;25998;46.604;13.610;2024-03-06T01:51:36;8.00;99.90
40287;DHT22;25998;46.604;13.610;2024-03-06T01:54:48;7.80;99.90
40287;DHT22;25998;46.604;13.610;2024-03-06T01:58:00;7.80;99.90
40287;DHT22;25998;46.604;13.610;2024-03-06T02:01:12;7.70;99.90
40287;DHT22;25998;46.604;13.610;2024-03-06T02:04:24;7.90;99.90
40287;DHT22;25998;46.604;13.610;2024-03-06T02:07:39;7.90;99.90
40287;DHT22;25998;46.604;13.610;2024-03-06T02:10:51;7.90;99.90
40287;DHT22;25998;46.604;13.610;2024-03-06T02:14:02;8.10;99.90
40287;DHT22;25998;46.604;13.610;2024-03-06T02:17:20;8.00;99.90
40287;DHT22;25998;46.604;13.610;2024-03-06T02:20:32;7.90;99.90
40287;DHT22;25998;46.604;13.610;2024-03-06T02:23:44;7.90;99.90
40287;DHT22;25998;46.604;13.610;2024-03-06T02:26:56;8.00;99.90
40287;DHT22;25998;46.604;13.610;2024-03-06T02:30:07;8.10;99.90
40287;DHT22;25998;46.604;13.610;2024-03-06T02:33:18;7.90;99.90
40287;DHT22;25998;46.604;13.610;2024-03-06T02:36:30;7.90;99.90
40287;DHT22;25998;46.604;13.610;2024-03-06T02:39:40;8.00;99.90
40287;DHT22;25998;46.604;13.610;2024-03-06T02:42:51;7.90;99.90
40287;DHT22;25998;46.604;13.610;2024-03-06T02:46:02;7.80;99.90
40287;DHT22;25998;46.604;13.610;2024-03-06T02:49:13;7.90;99.90
40287;DHT22;25998;46.604;13.610;2024-03-06T02:52:24;8.00;99.90
40287;DHT22;25998;46.604;13.610;2024-03-06T02:55:35;8.00;99.90
40287;DHT22;25998;46.604;13.610;2024-03-06T02:58:46;7.90;99.90
40287;DHT22;25998;46.604;13.610;2024-03-06T03:01:57;7.90;99.90
40287;DHT22;25998;46.604;13.610;2024-03-06T03:05:08;8.00;99.90
40287;DHT22;25998;46.604;13.610;2024-03-06T03:08:19;8.10;99.90
40287;DHT22;25998;46.604;13.610;2024-03-06T03:11:30;8.00;99.90
40287;DHT22;25998;46.604;13.610;2024-03-06T03:14:42;7.90;99.90
40287;DHT22;25998;46.604;13.610;2024-03-06T03:17:53;7.90;99.90
40287;DHT22;25998;46.604;13.610;2024-03-06T03:21:08;8.00;99.90
40287;DHT22;25998;46.604;13.610;2024-03-06T03:24:19;8.00;99.90
40287;DHT22;25998;46.604;13.610;2024-03-06T03:27:32;8.00;99.90
40287;DHT22;25998;46.604;13.610;2024-03-06T03:30:43;8.00;99.90
40287;DHT22;25998;46.604;13.610;2024-03-06T03:33:55;7.90;99.90
40287;DHT22;25998;46.604;13.610;2024-03-06T03:37:05;7.90;99.90
40287;DHT22;25998;46.604;13.610;2024-03-06T03:40:16;7.90;99.90
40287;DHT22;25998;46.604;13.610;2024-03-06T03:43:27;8.00;99.90
40287;DHT22;25998;46.604;13.610;2024-03-06T03:46:38;8.10;99.90
40287;DHT22;25998;46.604;13.610;2024-03-06T03:49:49;8.10;99.90
40287;DHT22;25998;46.604;13.610;2024-03-06T03:53:00;8.00;99.90
40287;DHT22;25998;46.604;13.610;2024-03-06T03:56:14;8.10;99.90
40287;DHT22;25998;46.604;13.610;2024-03-06T03:59:25;8.00;99.90
40287;DHT22;25998;46.604;13.610;2024-03-06T04:02:37;7.90;99.90
40287;DHT22;25998;46.604;13.610;2024-03-06T04:05:49;7.90;99.90
40287;DHT22;25998;46.604;13.610;2024-03-06T04:09:00;7.90;99.90
40287;DHT22;25998;46.604;13.610;2024-03-06T04:12:11;7.90;99.90
40287;DHT22;25998;46.604;13.610;2024-03-06T04:15:22;7.90;99.90
40287;DHT22;25998;46.604;13.610;2024-03-06T04:18:33;8.00;99.90
40287;DHT22;25998;46.604;13.610;2024-03-06T04:21:44;8.10;99.90
40287;DHT22;25998;46.604;13.610;2024-03-06T04:24:55;8.10;99.90
40287;DHT22;25998;46.604;13.610;2024-03-06T04:28:07;8.00;99.90
40287;DHT22;25998;46.604;13.610;2024-03-06T04:31:21;8.10;99.90
40287;DHT22;25998;46.604;13.610;2024-03-06T04:34:31;7.90;99.90
40287;DHT22;25998;46.604;13.610;2024-03-06T04:37:42;7.90;99.90
40287;DHT22;25998;46.604;13.610;2024-03-06T04:40:54;7.90;99.90
40287;DHT22;25998;46.604;13.610;2024-03-06T04:44:05;7.80;99.90
40287;DHT22;25998;46.604;13.610;2024-03-06T04:47:16;7.80;99.90
40287;DHT22;25998;46.604;13.610;2024-03-06T04:50:27;7.80;99.90
40287;DHT22;25998;46.604;13.610;2024-03-06T04:53:38;7.90;99.90
40287;DHT22;25998;46.604;13.610;2024-03-06T04:56:49;7.90;99.90
40287;DHT22;25998;46.604;13.610;2024-03-06T05:00:00;7.90;99.90
40287;DHT22;25998;46.604;13.610;2024-03-06T05:03:13;8.00;99.90
40287;DHT22;25998;46.604;13.610;2024-03-06T05:06:24;7.90;99.90
40287;DHT22;25998;46.604;13.610;2024-03-06T05:09:35;8.00;99.90
40287;DHT22;25998;46.604;13.610;2024-03-06T05:12:46;8.00;99.90
40287;DHT22;25998;46.604;13.610;2024-03-06T05:15:57;8.00;99.90
40287;DHT22;25998;46.604;13.610;2024-03-06T05:19:09;8.00;99.90
40287;DHT22;25998;46.604;13.610;2024-03-06T05:22:21;8.10;99.90
40287;DHT22;25998;46.604;13.610;2024-03-06T05:25:33;8.10;99.90
40287;DHT22;25998;46.604;13.610;2024-03-06T05:28:44;8.10;99.90
40287;DHT22;25998;46.604;13.610;2024-03-06T05:31:55;8.20;99.90
40287;DHT22;25998;46.604;13.610;2024-03-06T05:35:06;8.20;99.90
40287;DHT22;25998;46.604;13.610;2024-03-06T05:38:17;8.20;99.90
40287;DHT22;25998;46.604;13.610;2024-03-06T05:41:29;8.10;99.90
40287;DHT22;25998;46.604;13.610;2024-03-06T05:44:41;8.00;99.90
40287;DHT22;25998;46.604;13.610;2024-03-06T05:47:51;7.90;99.90
40287;DHT22;25998;46.604;13.610;2024-03-06T05:51:02;8.00;99.90
40287;DHT22;25998;46.604;13.610;2024-03-06T05:54:13;8.00;99.90
40287;DHT22;25998;46.604;13.610;2024-03-06T05:57:24;8.00;99.90
40287;DHT22;25998;46.604;13.610;2024-03-06T06:00:35;8.00;99.90
40287;DHT22;25998;46.604;13.610;2024-03-06T06:03:47;8.00;99.90
40287;DHT22;25998;46.604;13.610;2024-03-06T06:06:58;8.10;99.90
40287;DHT22;25998;46.604;13.610;2024-03-06T06:10:09;8.00;99.90
40287;DHT22;25998;46.604;13.610;2024-03-06T06:13:21;8.00;99.90
40287;DHT22;25998;46.604;13.610;2024-03-06T06:16:39;7.90;99.90
40287;DHT22;25998;46.604;13.610;2024-03-06T06:19:51;8.00;99.90
40287;DHT22;25998;46.604;13.610;2024-03-06T06:23:02;8.00;99.90
40287;DHT22;25998;46.604;13.610;2024-03-06T06:26:14;8.00;99.90
40287;DHT22;25998;46.604;13.610;2024-03-06T06:29:24;8.10;99.90
40287;DHT22;25998;46.604;13.610;2024-03-06T06:32:35;8.10;99.90
40287;DHT22;25998;46.604;13.610;2024-03-06T06:35:47;8.10;99.90
40287;DHT22;25998;46.604;13.610;2024-03-06T06:38:57;8.10;99.90
40287;DHT22;25998;46.604;13.610;2024-03-06T06:42:08;8.10;99.90
40287;DHT22;25998;46.604;13.610;2024-03-06T06:45:21;8.10;99.90
40287;DHT22;25998;46.604;13.610;2024-03-06T06:48:32;8.10;99.90
40287;DHT22;25998;46.604;13.610;2024-03-06T06:51:44;8.10;99.90
40287;DHT22;25998;46.604;13.610;2024-03-06T06:54:54;8.10;99.90
40287;DHT22;25998;46.604;13.610;2024-03-06T06:58:06;8.10;99.90
40287;DHT22;25998;46.604;13.610;2024-03-06T07:01:17;8.10;99.90
40287;DHT22;25998;46.604;13.610;2024-03-06T07:04:27;8.10;99.90
40287;DHT22;25998;46.604;13.610;2024-03-06T07:07:39;8.10;99.90
40287;DHT22;25998;46.604;13.610;2024-03-06T07:10:50;8.20;99.90
40287;DHT22;25998;46.604;13.610;2024-03-06T07:14:04;8.20;99.90
40287;DHT22;25998;46.604;13.610;2024-03-06T07:17:14;8.10;99.90
40287;DHT22;25998;46.604;13.610;2024-03-06T07:20:25;8.20;99.90
40287;DHT22;25998;46.604;13.610;2024-03-06T07:23:36;8.10;99.90
40287;DHT22;25998;46.604;13.610;2024-03-06T07:26:47;8.20;99.90
40287;DHT22;25998;46.604;13.610;2024-03-06T07:29:58;8.20;99.90
40287;DHT22;25998;46.604;13.610;2024-03-06T07:33:09;8.20;99.90
40287;DHT22;25998;46.604;13.610;2024-03-06T07:36:20;8.20;99.90
40287;DHT22;25998;46.604;13.610;2024-03-06T07:39:32;8.20;99.90
40287;DHT22;25998;46.604;13.610;2024-03-06T07:42:43;8.30;99.90
40287;DHT22;25998;46.604;13.610;2024-03-06T07:45:54;8.30;99.90
40287;DHT22;25998;46.604;13.610;2024-03-06T07:49:06;8.20;99.90
40287;DHT22;25998;46.604;13.610;2024-03-06T07:52:16;8.40;99.90
40287;DHT22;25998;46.604;13.610;2024-03-06T07:55:27;8.40;99.90
40287;DHT22;25998;46.604;13.610;2024-03-06T07:58:40;8.40;99.90
40287;DHT22;25998;46.604;13.610;2024-03-06T08:01:50;8.40;99.90
40287;DHT22;25998;46.604;13.610;2024-03-06T08:05:03;8.30;99.90
40287;DHT22;25998;46.604;13.610;2024-03-06T08:08:14;8.30;99.90
40287;DHT22;25998;46.604;13.610;2024-03-06T08:11:24;8.40;99.90
40287;DHT22;25998;46.604;13.610;2024-03-06T08:14:35;8.30;99.90
40287;DHT22;25998;46.604;13.610;2024-03-06T08:17:48;8.30;99.90
40287;DHT22;25998;46.604;13.610;2024-03-06T08:21:01;8.40;99.90
40287;DHT22;25998;46.604;13.610;2024-03-06T08:24:12;8.40;99.90
40287;DHT22;25998;46.604;13.610;2024-03-06T08:27:23;8.50;99.90
40287;DHT22;25998;46.604;13.610;2024-03-06T08:30:34;8.50;99.90
40287;DHT22;25998;46.604;13.610;2024-03-06T08:33:45;8.30;99.90
40287;DHT22;25998;46.604;13.610;2024-03-06T08:36:56;8.30;99.90
40287;DHT22;25998;46.604;13.610;2024-03-06T08:40:08;8.30;99.90
40287;DHT22;25998;46.604;13.610;2024-03-06T08:43:21;8.30;99.90
40287;DHT22;25998;46.604;13.610;2024-03-06T08:46:31;8.40;99.90
40287;DHT22;25998;46.604;13.610;2024-03-06T08:49:42;8.30;99.90
40287;DHT22;25998;46.604;13.610;2024-03-06T08:52:53;8.40;99.90
40287;DHT22;25998;46.604;13.610;2024-03-06T08:56:05;8.30;99.90
40287;DHT22;25998;46.604;13.610;2024-03-06T08:59:16;8.30;99.90
40287;DHT22;25998;46.604;13.610;2024-03-06T09:02:27;8.30;99.90
40287;DHT22;25998;46.604;13.610;2024-03-06T09:05:38;8.40;99.90
40287;DHT22;25998;46.604;13.610;2024-03-06T09:08:49;8.30;99.90
40287;DHT22;25998;46.604;13.610;2024-03-06T09:12:01;8.30;99.90
40287;DHT22;25998;46.604;13.610;2024-03-06T09:15:12;8.30;99.90
40287;DHT22;25998;46.604;13.610;2024-03-06T09:18:22;8.40;99.90
40287;DHT22;25998;46.604;13.610;2024-03-06T09:21:33;8.40;99.90
40287;DHT22;25998;46.604;13.610;2024-03-06T09:24:44;8.40;99.90
40287;DHT22;25998;46.604;13.610;2024-03-06T09:27:55;8.40;99.90
40287;DHT22;25998;46.604;13.610;2024-03-06T09:31:06;8.40;99.90
40287;DHT22;25998;46.604;13.610;2024-03-06T09:34:17;8.40;99.90
40287;DHT22;25998;46.604;13.610;2024-03-06T09:37:28;8.40;99.90
40287;DHT22;25998;46.604;13.610;2024-03-06T09:40:39;8.50;99.90
40287;DHT22;25998;46.604;13.610;2024-03-06T09:43:51;8.50;99.90
40287;DHT22;25998;46.604;13.610;2024-03-06T09:47:03;8.50;99.90
40287;DHT22;25998;46.604;13.610;2024-03-06T09:50:16;8.50;99.90
40287;DHT22;25998;46.604;13.610;2024-03-06T09:53:31;8.50;99.90
40287;DHT22;25998;46.604;13.610;2024-03-06T09:56:42;8.50;99.90
40287;DHT22;25998;46.604;13.610;2024-03-06T09:59:54;8.50;99.90
40287;DHT22;25998;46.604;13.610;2024-03-06T10:03:05;8.40;99.90
40287;DHT22;25998;46.604;13.610;2024-03-06T10:06:16;8.40;99.90
40287;DHT22;25998;46.604;13.610;2024-03-06T10:09:27;8.40;99.90
40287;DHT22;25998;46.604;13.610;2024-03-06T10:12:38;8.50;99.90
40287;DHT22;25998;46.604;13.610;2024-03-06T10:16:00;8.50;99.90
40287;DHT22;25998;46.604;13.610;2024-03-06T10:19:18;8.50;99.90
40287;DHT22;25998;46.604;13.610;2024-03-06T10:22:29;8.50;99.90
40287;DHT22;25998;46.604;13.610;2024-03-06T10:25:43;8.60;99.90
40287;DHT22;25998;46.604;13.610;2024-03-06T10:28:55;8.60;99.90
40287;DHT22;25998;46.604;13.610;2024-03-06T10:32:07;8.70;99.90
40287;DHT22;25998;46.604;13.610;2024-03-06T10:35:18;8.60;99.90
40287;DHT22;25998;46.604;13.610;2024-03-06T10:38:34;8.60;99.90
40287;DHT22;25998;46.604;13.610;2024-03-06T10:41:52;8.50;99.90
40287;DHT22;25998;46.604;13.610;2024-03-06T10:45:04;8.50;99.90
40287;DHT22;25998;46.604;13.610;2024-03-06T10:48:17;8.50;99.90
40287;DHT22;25998;46.604;13.610;2024-03-06T10:51:29;8.40;99.90
40287;DHT22;25998;46.604;13.610;2024-03-06T10:54:41;8.50;99.90
40287;DHT22;25998;46.604;13.610;2024-03-06T10:57:57;8.60;99.90
40287;DHT22;25998;46.604;13.610;2024-03-06T11:01:09;8.60;99.90
40287;DHT22;25998;46.604;13.610;2024-03-06T11:04:20;8.60;99.90
40287;DHT22;25998;46.604;13.610;2024-03-06T11:07:31;8.60;99.90
40287;DHT22;25998;46.604;13.610;2024-03-06T11:10:43;8.70;99.90
40287;DHT22;25998;46.604;13.610;2024-03-06T11:13:55;8.70;99.90
40287;DHT22;25998;46.604;13.610;2024-03-06T11:17:11;8.70;99.90
40287;DHT22;25998;46.604;13.610;2024-03-06T11:20:22;8.60;99.90
40287;DHT22;25998;46.604;13.610;2024-03-06T11:23:35;8.60;99.90
40287;DHT22;25998;46.604;13.610;2024-03-06T11:27:05;8.70;99.90
40287;DHT22;25998;46.604;13.610;2024-03-06T11:30:20;8.80;99.90
40287;DHT22;25998;46.604;13.610;2024-03-06T11:33:45;8.90;99.90
40287;DHT22;25998;46.604;13.610;2024-03-06T11:36:57;9.00;99.90
40287;DHT22;25998;46.604;13.610;2024-03-06T11:40:09;9.00;99.90
40287;DHT22;25998;46.604;13.610;2024-03-06T11:43:25;9.10;99.90
40287;DHT22;25998;46.604;13.610;2024-03-06T11:47:06;9.10;99.90
40287;DHT22;25998;46.604;13.610;2024-03-06T11:50:19;9.10;99.90
40287;DHT22;25998;46.604;13.610;2024-03-06T11:53:30;9.10;99.90
40287;DHT22;25998;46.604;13.610;2024-03-06T11:56:45;9.10;99.90
40287;DHT22;25998;46.604;13.610;2024-03-06T12:00:03;9.20;99.90
40287;DHT22;25998;46.604;13.610;2024-03-06T12:03:18;9.20;99.90
40287;DHT22;25998;46.604;13.610;2024-03-06T12:06:29;9.10;99.90
40287;DHT22;25998;46.604;13.610;2024-03-06T12:09:40;9.20;99.90
40287;DHT22;25998;46.604;13.610;2024-03-06T12:12:51;9.30;99.90
40287;DHT22;25998;46.604;13.610;2024-03-06T12:16:06;9.30;99.90
40287;DHT22;25998;46.604;13.610;2024-03-06T12:19:18;9.20;99.90
40287;DHT22;25998;46.604;13.610;2024-03-06T12:22:29;9.20;99.90
40287;DHT22;25998;46.604;13.610;2024-03-06T12:25:40;9.20;99.90
40287;DHT22;25998;46.604;13.610;2024-03-06T12:28:52;9.10;99.90
40287;DHT22;25998;46.604;13.610;2024-03-06T12:32:03;9.20;99.90
40287;DHT22;25998;46.604;13.610;2024-03-06T12:35:24;9.10;99.90
40287;DHT22;25998;46.604;13.610;2024-03-06T12:38:36;9.10;99.90
40287;DHT22;25998;46.604;13.610;2024-03-06T12:41:48;9.20;99.90
40287;DHT22;25998;46.604;13.610;2024-03-06T12:44:58;9.20;99.90
40287;DHT22;25998;46.604;13.610;2024-03-06T12:48:09;9.20;99.90
40287;DHT22;25998;46.604;13.610;2024-03-06T12:51:20;9.10;99.90
40287;DHT22;25998;46.604;13.610;2024-03-06T12:54:31;9.00;99.90
40287;DHT22;25998;46.604;13.610;2024-03-06T12:57:42;9.00;99.90
40287;DHT22;25998;46.604;13.610;2024-03-06T13:00:54;8.90;99.90
40287;DHT22;25998;46.604;13.610;2024-03-06T13:04:05;9.00;99.90
40287;DHT22;25998;46.604;13.610;2024-03-06T13:07:16;9.00;99.90
40287;DHT22;25998;46.604;13.610;2024-03-06T13:10:28;9.00;99.90
40287;DHT22;25998;46.604;13.610;2024-03-06T13:13:39;9.10;99.90
40287;DHT22;25998;46.604;13.610;2024-03-06T13:16:50;9.00;99.90
40287;DHT22;25998;46.604;13.610;2024-03-06T13:20:01;8.80;99.90
40287;DHT22;25998;46.604;13.610;2024-03-06T13:23:12;8.70;99.90
40287;DHT22;25998;46.604;13.610;2024-03-06T13:26:23;8.60;99.90
40287;DHT22;25998;46.604;13.610;2024-03-06T13:29:35;8.60;99.90
40287;DHT22;25998;46.604;13.610;2024-03-06T13:32:46;8.60;99.90
40287;DHT22;25998;46.604;13.610;2024-03-06T13:35:57;8.80;99.90
40287;DHT22;25998;46.604;13.610;2024-03-06T13:39:08;8.70;99.90
40287;DHT22;25998;46.604;13.610;2024-03-06T13:42:19;8.70;99.90
40287;DHT22;25998;46.604;13.610;2024-03-06T13:45:30;8.70;99.90
40287;DHT22;25998;46.604;13.610;2024-03-06T13:48:41;8.70;99.90
40287;DHT22;25998;46.604;13.610;2024-03-06T13:51:52;8.70;99.90
40287;DHT22;25998;46.604;13.610;2024-03-06T13:55:03;8.80;99.90
40287;DHT22;25998;46.604;13.610;2024-03-06T13:58:18;8.70;99.90
40287;DHT22;25998;46.604;13.610;2024-03-06T14:01:29;8.70;99.90
40287;DHT22;25998;46.604;13.610;2024-03-06T14:04:40;8.80;99.90
40287;DHT22;25998;46.604;13.610;2024-03-06T14:07:51;8.80;99.90
40287;DHT22;25998;46.604;13.610;2024-03-06T14:11:02;8.70;99.90
40287;DHT22;25998;46.604;13.610;2024-03-06T14:14:18;8.70;99.90
40287;DHT22;25998;46.604;13.610;2024-03-06T14:17:29;8.70;99.90
40287;DHT22;25998;46.604;13.610;2024-03-06T14:20:40;8.60;99.90
40287;DHT22;25998;46.604;13.610;2024-03-06T14:23:51;8.70;99.90
40287;DHT22;25998;46.604;13.610;2024-03-06T14:27:03;8.80;99.90
40287;DHT22;25998;46.604;13.610;2024-03-06T14:30:14;8.70;99.90
40287;DHT22;25998;46.604;13.610;2024-03-06T14:33:25;8.70;99.90
40287;DHT22;25998;46.604;13.610;2024-03-06T14:36:38;8.70;99.90
40287;DHT22;25998;46.604;13.610;2024-03-06T14:39:49;8.70;99.90
40287;DHT22;25998;46.604;13.610;2024-03-06T14:43:01;8.70;99.90
40287;DHT22;25998;46.604;13.610;2024-03-06T14:46:12;8.50;99.90
40287;DHT22;25998;46.604;13.610;2024-03-06T14:49:23;8.50;99.90
40287;DHT22;25998;46.604;13.610;2024-03-06T14:52:34;8.40;99.90
40287;DHT22;25998;46.604;13.610;2024-03-06T14:55:45;8.40;99.90
40287;DHT22;25998;46.604;13.610;2024-03-06T14:58:56;8.40;99.90
40287;DHT22;25998;46.604;13.610;2024-03-06T15:02:08;8.40;99.90
40287;DHT22;25998;46.604;13.610;2024-03-06T15:05:19;8.50;99.90
40287;DHT22;25998;46.604;13.610;2024-03-06T15:08:30;8.60;99.90
40287;DHT22;25998;46.604;13.610;2024-03-06T15:11:41;8.60;99.90
40287;DHT22;25998;46.604;13.610;2024-03-06T15:14:52;8.60;99.90
40287;DHT22;25998;46.604;13.610;2024-03-06T15:18:05;8.50;99.90
40287;DHT22;25998;46.604;13.610;2024-03-06T15:21:16;8.40;99.90
40287;DHT22;25998;46.604;13.610;2024-03-06T15:24:27;8.50;99.90
40287;DHT22;25998;46.604;13.610;2024-03-06T15:27:38;8.50;99.90
40287;DHT22;25998;46.604;13.610;2024-03-06T15:30:49;8.50;99.90
40287;DHT22;25998;46.604;13.610;2024-03-06T15:34:01;8.60;99.90
40287;DHT22;25998;46.604;13.610;2024-03-06T15:37:12;8.60;99.90
40287;DHT22;25998;46.604;13.610;2024-03-06T15:40:23;8.50;99.90
40287;DHT22;25998;46.604;13.610;2024-03-06T15:43:34;8.50;99.90
40287;DHT22;25998;46.604;13.610;2024-03-06T15:46:44;8.50;99.90
40287;DHT22;25998;46.604;13.610;2024-03-06T15:49:56;8.50;99.90
40287;DHT22;25998;46.604;13.610;2024-03-06T15:53:07;8.50;99.90
40287;DHT22;25998;46.604;13.610;2024-03-06T15:56:19;8.40;99.90
40287;DHT22;25998;46.604;13.610;2024-03-06T15:59:33;8.30;99.90
40287;DHT22;25998;46.604;13.610;2024-03-06T16:02:44;8.30;99.90
40287;DHT22;25998;46.604;13.610;2024-03-06T16:05:55;8.30;99.90
40287;DHT22;25998;46.604;13.610;2024-03-06T16:09:05;8.30;99.90
40287;DHT22;25998;46.604;13.610;2024-03-06T16:12:16;8.40;99.90
40287;DHT22;25998;46.604;13.610;2024-03-06T16:15:28;8.40;99.90
40287;DHT22;25998;46.604;13.610;2024-03-06T16:18:38;8.40;99.90
40287;DHT22;25998;46.604;13.610;2024-03-06T16:21:50;8.40;99.90
40287;DHT22;25998;46.604;13.610;2024-03-06T16:25:02;8.30;99.90
40287;DHT22;25998;46.604;13.610;2024-03-06T16:28:13;8.20;99.90
40287;DHT22;25998;46.604;13.610;2024-03-06T16:31:25;8.20;99.90
40287;DHT22;25998;46.604;13.610;2024-03-06T16:34:36;8.10;99.90
40287;DHT22;25998;46.604;13.610;2024-03-06T16:37:46;8.20;99.90
40287;DHT22;25998;46.604;13.610;2024-03-06T16:40:59;8.20;99.90
40287;DHT22;25998;46.604;13.610;2024-03-06T16:44:10;8.20;99.90
40287;DHT22;25998;46.604;13.610;2024-03-06T16:47:22;8.20;99.90
40287;DHT22;25998;46.604;13.610;2024-03-06T16:50:33;8.30;99.90
40287;DHT22;25998;46.604;13.610;2024-03-06T16:53:43;8.40;99.90
40287;DHT22;25998;46.604;13.610;2024-03-06T16:56:54;8.40;99.90
40287;DHT22;25998;46.604;13.610;2024-03-06T17:00:05;8.30;99.90
40287;DHT22;25998;46.604;13.610;2024-03-06T17:03:17;8.30;99.90
40287;DHT22;25998;46.604;13.610;2024-03-06T17:06:28;8.40;99.90
40287;DHT22;25998;46.604;13.610;2024-03-06T17:09:39;8.40;99.90
40287;DHT22;25998;46.604;13.610;2024-03-06T17:12:51;8.30;99.90
40287;DHT22;25998;46.604;13.610;2024-03-06T17:16:02;8.20;99.90
40287;DHT22;25998;46.604;13.610;2024-03-06T17:19:13;8.20;99.90
40287;DHT22;25998;46.604;13.610;2024-03-06T17:22:25;8.20;99.90
40287;DHT22;25998;46.604;13.610;2024-03-06T17:25:36;8.20;99.90
40287;DHT22;25998;46.604;13.610;2024-03-06T17:28:47;8.10;99.90
40287;DHT22;25998;46.604;13.610;2024-03-06T17:31:58;8.10;99.90
40287;DHT22;25998;46.604;13.610;2024-03-06T17:35:09;8.10;99.90
40287;DHT22;25998;46.604;13.610;2024-03-06T17:38:20;8.20;99.90
40287;DHT22;25998;46.604;13.610;2024-03-06T17:41:31;8.20;99.90
40287;DHT22;25998;46.604;13.610;2024-03-06T17:44:42;8.20;99.90
40287;DHT22;25998;46.604;13.610;2024-03-06T17:47:52;8.20;99.90
40287;DHT22;25998;46.604;13.610;2024-03-06T17:51:03;8.10;99.90
40287;DHT22;25998;46.604;13.610;2024-03-06T17:54:15;8.10;99.90
40287;DHT22;25998;46.604;13.610;2024-03-06T17:57:27;8.10;99.90
40287;DHT22;25998;46.604;13.610;2024-03-06T18:00:38;8.00;99.90
40287;DHT22;25998;46.604;13.610;2024-03-06T18:03:52;8.00;99.90
40287;DHT22;25998;46.604;13.610;2024-03-06T18:07:06;7.90;99.90
40287;DHT22;25998;46.604;13.610;2024-03-06T18:10:19;7.90;99.90
40287;DHT22;25998;46.604;13.610;2024-03-06T18:13:29;8.00;99.90
40287;DHT22;25998;46.604;13.610;2024-03-06T18:20:47;8.00;99.90
40287;DHT22;25998;46.604;13.610;2024-03-06T18:23:58;8.10;99.90
40287;DHT22;25998;46.604;13.610;2024-03-06T18:27:10;8.20;99.90
40287;DHT22;25998;46.604;13.610;2024-03-06T18:30:21;8.20;99.90
40287;DHT22;25998;46.604;13.610;2024-03-06T18:33:37;8.20;99.90
40287;DHT22;25998;46.604;13.610;2024-03-06T18:36:53;8.20;99.90
40287;DHT22;25998;46.604;13.610;2024-03-06T18:40:04;8.20;99.90
40287;DHT22;25998;46.604;13.610;2024-03-06T18:43:18;8.20;99.90
40287;DHT22;25998;46.604;13.610;2024-03-06T18:46:30;8.10;99.90
40287;DHT22;25998;46.604;13.610;2024-03-06T18:49:46;8.00;99.90
40287;DHT22;25998;46.604;13.610;2024-03-06T18:53:05;7.90;99.90
40287;DHT22;25998;46.604;13.610;2024-03-06T18:56:16;7.80;99.90
40287;DHT22;25998;46.604;13.610;2024-03-06T18:59:29;7.70;99.90
40287;DHT22;25998;46.604;13.610;2024-03-06T19:02:46;7.60;99.90
40287;DHT22;25998;46.604;13.610;2024-03-06T19:06:07;7.50;99.90
40287;DHT22;25998;46.604;13.610;2024-03-06T19:09:23;7.60;99.90
40287;DHT22;25998;46.604;13.610;2024-03-06T19:12:35;7.50;99.90
40287;DHT22;25998;46.604;13.610;2024-03-06T19:15:48;7.50;99.90
40287;DHT22;25998;46.604;13.610;2024-03-06T19:19:02;7.50;99.90
40287;DHT22;25998;46.604;13.610;2024-03-06T19:22:23;7.50;99.90
40287;DHT22;25998;46.604;13.610;2024-03-06T19:25:38;7.50;99.90
40287;DHT22;25998;46.604;13.610;2024-03-06T19:28:49;7.50;99.90
40287;DHT22;25998;46.604;13.610;2024-03-06T19:36:10;7.40;99.90
40287;DHT22;25998;46.604;13.610;2024-03-06T19:39:25;7.30;99.90
40287;DHT22;25998;46.604;13.610;2024-03-06T19:42:36;7.30;99.90
40287;DHT22;25998;46.604;13.610;2024-03-06T19:45:47;7.30;99.90
40287;DHT22;25998;46.604;13.610;2024-03-06T19:49:06;7.50;99.90
40287;DHT22;25998;46.604;13.610;2024-03-06T19:52:19;7.40;99.90
40287;DHT22;25998;46.604;13.610;2024-03-06T19:55:30;7.40;99.90
40287;DHT22;25998;46.604;13.610;2024-03-06T19:58:42;7.30;99.90
40287;DHT22;25998;46.604;13.610;2024-03-06T20:01:55;7.40;99.90
40287;DHT22;25998;46.604;13.610;2024-03-06T20:05:06;7.30;99.90
40287;DHT22;25998;46.604;13.610;2024-03-06T20:08:20;7.40;99.90
40287;DHT22;25998;46.604;13.610;2024-03-06T20:11:34;7.50;99.90
40287;DHT22;25998;46.604;13.610;2024-03-06T20:14:45;7.50;99.90
40287;DHT22;25998;46.604;13.610;2024-03-06T20:17:58;7.60;99.90
40287;DHT22;25998;46.604;13.610;2024-03-06T20:21:09;7.50;99.90